Time;durP1;ratioP1;P1;durP2;ratioP2;P2;SDS_P1;SDS_P2;PMS_P1;PMS_P2;Temp;Humidity;BMP_temperature;BMP_pressure;BME280_temperature;BME280_humidity;BME280_pressure;Samples;Min_cycle;Max_cycle;Signal;HPM_P1;HPM_P2
2022/05/07 00:01:13;;;;;;;5.70;4.80;;;12.80;86.80;;;;;;7375689;19;20996;-48
2022/05/07 00:03:43;;;;;;;6.03;4.60;;;12.90;86.70;;;;;;7371075;19;20421;-49
2022/05/07 00:06:12;;;;;;;7.43;5.00;;;12.70;87.30;;;;;;7374708;19;20938;-48
2022/05/07 00:08:41;;;;;;;7.07;4.80;;;12.70;87.60;;;;;;7376517;19;20383;-48
2022/05/07 00:11:15;;;;;;;6.63;5.20;;;12.70;87.90;;;;;;7374630;19;20492;-49
2022/05/07 00:13:45;;;;;;;6.97;5.73;;;12.70;88.00;;;;;;7372772;19;21321;-48
2022/05/07 00:19:02;;;;;;;6.50;4.77;;;12.60;88.40;;;;;;7370085;19;22133;-48
2022/05/07 00:21:33;;;;;;;9.63;5.23;;;12.50;88.50;;;;;;7369335;19;20930;-49
2022/05/07 00:24:06;;;;;;;6.43;5.30;;;12.40;89.30;;;;;;7371986;19;21482;-49
2022/05/07 00:26:37;;;;;;;6.90;5.43;;;12.50;89.40;;;;;;7372268;19;20462;-48
2022/05/07 00:29:09;;;;;;;7.20;4.73;;;12.50;88.80;;;;;;7371242;19;20473;-48
2022/05/07 00:31:43;;;;;;;6.10;4.37;;;12.80;87.50;;;;;;7376294;19;21071;-48
2022/05/07 00:34:13;;;;;;;7.37;4.50;;;13.00;86.20;;;;;;7370359;19;20406;-48
2022/05/07 00:36:43;;;;;;;5.33;4.50;;;13.00;85.70;;;;;;7366696;19;20372;-48
2022/05/07 00:39:12;;;;;;;5.23;4.07;;;12.90;86.10;;;;;;7363460;19;20387;-48
2022/05/07 00:41:45;;;;;;;8.73;5.07;;;12.90;86.30;;;;;;7367988;19;20806;-48
2022/05/07 00:44:17;;;;;;;6.80;5.10;;;12.90;86.20;;;;;;7368810;19;20429;-48
2022/05/07 00:46:52;;;;;;;7.57;4.80;;;12.70;86.90;;;;;;7365819;19;20385;-48
2022/05/07 00:49:22;;;;;;;7.30;4.93;;;12.70;87.10;;;;;;7372565;19;20997;-48
2022/05/07 00:51:49;;;;;;;7.07;5.50;;;12.80;86.80;;;;;;7373220;19;20829;-48
2022/05/07 00:54:20;;;;;;;6.50;4.63;;;12.80;86.70;;;;;;7370119;19;20404;-48
2022/05/07 00:56:49;;;;;;;5.90;4.90;;;12.60;87.80;;;;;;7366497;19;20404;-48
2022/05/07 00:59:20;;;;;;;10.43;5.67;;;12.40;89.10;;;;;;7371080;19;20472;-48
2022/05/07 01:01:54;;;;;;;6.93;5.10;;;12.40;90.00;;;;;;7372172;19;21179;-48
2022/05/07 01:04:28;;;;;;;9.83;5.43;;;12.50;88.80;;;;;;7369020;19;21042;-48
2022/05/07 01:06:58;;;;;;;7.97;5.80;;;12.30;89.70;;;;;;7366936;19;20791;-49
2022/05/07 01:09:28;;;;;;;8.60;5.83;;;12.00;90.70;;;;;;7377909;19;20948;-49
2022/05/07 01:11:58;;;;;;;8.60;5.40;;;12.00;90.90;;;;;;7374184;19;20357;-48
2022/05/07 01:14:28;;;;;;;5.30;4.43;;;12.10;90.90;;;;;;7376970;19;20364;-49
2022/05/07 01:17:02;;;;;;;8.83;6.17;;;12.10;90.60;;;;;;7372565;19;20768;-48
2022/05/07 01:19:33;;;;;;;6.93;5.80;;;12.10;90.80;;;;;;7369025;19;20436;-48
2022/05/07 01:22:05;;;;;;;6.20;5.40;;;12.10;91.00;;;;;;7376754;19;20406;-49
2022/05/07 01:24:35;;;;;;;10.37;5.43;;;12.10;90.70;;;;;;7370936;19;20399;-48
2022/05/07 01:27:07;;;;;;;9.60;5.87;;;12.30;90.60;;;;;;7374981;19;20797;-48
2022/05/07 01:29:39;;;;;;;6.57;5.37;;;12.50;90.10;;;;;;7377181;19;20399;-48
2022/05/07 01:32:11;;;;;;;6.53;5.50;;;12.60;89.10;;;;;;7372842;19;21431;-49
2022/05/07 01:34:43;;;;;;;7.50;5.80;;;12.60;88.70;;;;;;7374905;19;20399;-48
2022/05/07 01:37:18;;;;;;;6.33;5.10;;;12.50;89.00;;;;;;7377530;19;20391;-48
2022/05/07 01:39:51;;;;;;;6.43;4.70;;;12.20;89.50;;;;;;7378884;19;21568;-49
2022/05/07 01:42:20;;;;;;;6.37;5.10;;;12.10;90.20;;;;;;7378007;19;20490;-48
2022/05/07 01:44:50;;;;;;;7.10;5.10;;;12.10;90.40;;;;;;7369406;19;21072;-48
2022/05/07 01:50:02;;;;;;;8.10;5.73;;;12.10;90.60;;;;;;7375053;19;20371;-49
2022/05/07 01:52:35;;;;;;;10.33;5.30;;;12.20;90.30;;;;;;7376196;19;20407;-48
2022/05/07 01:55:07;;;;;;;7.50;5.40;;;12.20;90.20;;;;;;7373434;19;20404;-48
2022/05/07 01:57:37;;;;;;;7.23;5.63;;;12.00;90.80;;;;;;7373433;19;21367;-49
2022/05/07 02:00:08;;;;;;;9.10;5.83;;;11.90;91.20;;;;;;7373898;19;20757;-48
2022/05/07 02:02:41;;;;;;;7.90;6.20;;;11.60;91.90;;;;;;7378849;19;20430;-48
2022/05/07 02:05:20;;;;;;;7.13;5.50;;;11.70;91.80;;;;;;7375610;19;20808;-48
2022/05/07 02:07:54;;;;;;;7.93;6.70;;;11.80;91.70;;;;;;7373854;19;21017;-48
2022/05/07 02:10:25;;;;;;;7.63;5.60;;;12.00;91.10;;;;;;7365505;19;20404;-48
2022/05/07 02:13:01;;;;;;;7.30;5.53;;;12.00;91.00;;;;;;7375536;19;20786;-48
2022/05/07 02:15:31;;;;;;;7.90;5.37;;;12.00;91.10;;;;;;7373558;19;20393;-49
2022/05/07 02:18:03;;;;;;;8.10;5.60;;;12.00;90.80;;;;;;7370773;19;20452;-49
2022/05/07 02:20:38;;;;;;;8.67;5.80;;;12.00;91.00;;;;;;7374189;19;20375;-48
2022/05/07 02:23:10;;;;;;;9.73;6.40;;;11.70;91.60;;;;;;7370012;19;20405;-48
2022/05/07 02:25:40;;;;;;;6.60;5.90;;;11.60;91.70;;;;;;7374082;19;20900;-48
2022/05/07 02:28:12;;;;;;;10.43;7.13;;;11.60;92.00;;;;;;7373823;19;20798;-48
2022/05/07 02:30:44;;;;;;;9.33;5.70;;;11.40;92.30;;;;;;7373224;19;20403;-48
2022/05/07 02:33:15;;;;;;;6.83;5.67;;;11.40;92.90;;;;;;7377215;19;20411;-48
2022/05/07 02:35:45;;;;;;;7.43;5.30;;;11.60;92.00;;;;;;7373068;19;20380;-48
2022/05/07 02:38:17;;;;;;;11.50;5.83;;;11.70;91.60;;;;;;7375870;19;20367;-48
2022/05/07 02:43:39;;;;;;;10.17;5.90;;;11.70;91.60;;;;;;7376546;19;20472;-39
2022/05/07 02:46:13;;;;;;;6.23;5.63;;;11.50;92.00;;;;;;7376247;19;20390;-39
2022/05/07 02:48:46;;;;;;;7.30;5.70;;;11.50;91.90;;;;;;7375497;19;20412;-40
2022/05/07 02:51:18;;;;;;;6.90;5.43;;;11.60;91.70;;;;;;7369085;19;20967;-40
2022/05/07 02:53:52;;;;;;;8.90;6.00;;;11.60;91.70;;;;;;7376572;19;20376;-40
2022/05/07 02:56:24;;;;;;;7.83;6.07;;;11.60;91.60;;;;;;7377458;19;20402;-39
2022/05/07 02:58:56;;;;;;;7.50;5.70;;;11.50;92.00;;;;;;7374029;19;20400;-40
2022/05/07 03:01:31;;;;;;;9.50;6.00;;;11.50;92.00;;;;;;7371978;19;20438;-40
2022/05/07 03:04:00;;;;;;;6.13;5.50;;;11.50;92.20;;;;;;7379500;19;20375;-40
2022/05/07 03:06:33;;;;;;;7.27;5.30;;;11.60;91.90;;;;;;7372343;19;20408;-40
2022/05/07 03:09:07;;;;;;;7.80;6.17;;;11.50;92.20;;;;;;7373778;19;20980;-40
2022/05/07 03:11:36;;;;;;;7.60;5.67;;;11.50;92.20;;;;;;7373591;19;20408;-49
2022/05/07 03:14:07;;;;;;;8.68;5.65;;;11.50;92.00;;;;;;7377260;19;20369;-48
2022/05/07 03:16:38;;;;;;;7.87;5.50;;;11.60;91.80;;;;;;7368700;19;20608;-48
2022/05/07 03:19:10;;;;;;;6.80;5.70;;;11.50;92.00;;;;;;7370546;19;20435;-49
2022/05/07 03:21:42;;;;;;;11.30;6.73;;;11.60;91.90;;;;;;7375029;19;20759;-49
2022/05/07 03:24:18;;;;;;;10.30;5.77;;;11.50;92.00;;;;;;7375802;19;20380;-49
2022/05/07 03:26:49;;;;;;;9.10;6.40;;;11.60;91.80;;;;;;7371831;19;20431;-49
2022/05/07 03:29:25;;;;;;;9.70;6.40;;;11.40;92.30;;;;;;7373874;19;21002;-50
2022/05/07 03:32:05;;;;;;;7.77;6.27;;;11.30;92.40;;;;;;7369369;19;20420;-48
2022/05/07 03:34:35;;;;;;;8.20;6.20;;;11.20;93.00;;;;;;7373995;19;20387;-49
2022/05/07 03:37:08;;;;;;;8.03;5.70;;;11.40;92.60;;;;;;7375415;19;20386;-50
2022/05/07 03:39:41;;;;;;;8.23;6.10;;;11.40;92.20;;;;;;7378302;19;20903;-49
2022/05/07 03:42:13;;;;;;;12.20;6.93;;;11.30;92.50;;;;;;7371530;19;20408;-40
2022/05/07 03:44:43;;;;;;;7.67;5.93;;;11.10;92.90;;;;;;7377642;19;20801;-40
2022/05/07 03:47:12;;;;;;;9.00;6.77;;;11.10;93.30;;;;;;7365135;19;20415;-40
2022/05/07 03:49:43;;;;;;;9.67;7.70;;;10.90;93.50;;;;;;7369756;19;20469;-40
2022/05/07 03:54:57;;;;;;;9.77;6.37;;;11.00;93.90;;;;;;7368333;19;20696;-40
2022/05/07 03:57:29;;;;;;;6.77;5.03;;;11.00;93.60;;;;;;7374682;19;20398;-40
2022/05/07 04:00:01;;;;;;;7.30;6.00;;;11.10;93.40;;;;;;7376170;19;20357;-40
2022/05/07 04:02:35;;;;;;;7.00;5.20;;;11.20;93.10;;;;;;7370384;19;20372;-40
2022/05/07 04:05:06;;;;;;;10.60;6.30;;;11.40;92.80;;;;;;7371061;19;20838;-40
2022/05/07 04:07:36;;;;;;;8.60;6.33;;;11.20;93.00;;;;;;7373036;19;20499;-40
2022/05/07 04:10:13;;;;;;;7.93;5.83;;;10.90;93.80;;;;;;7369988;19;20797;-48
2022/05/07 04:12:51;;;;;;;6.43;5.80;;;11.00;93.80;;;;;;7369544;19;20407;-48
2022/05/07 04:15:28;;;;;;;9.00;5.90;;;11.20;93.40;;;;;;7373787;19;20368;-50
2022/05/07 04:18:05;;;;;;;7.43;5.63;;;11.30;92.90;;;;;;7370576;19;21025;-49
2022/05/07 04:20:40;;;;;;;6.70;6.00;;;11.30;92.80;;;;;;7370352;19;20380;-48
2022/05/07 04:23:14;;;;;;;7.23;5.97;;;11.10;92.90;;;;;;7371107;19;20797;-48
2022/05/07 04:25:51;;;;;;;10.77;7.07;;;10.80;94.00;;;;;;7372738;19;20395;-49
2022/05/07 04:28:27;;;;;;;6.77;5.90;;;10.90;94.10;;;;;;7367126;19;20140;-49
2022/05/07 04:30:58;;;;;;;9.67;6.03;;;11.10;93.60;;;;;;7363836;19;20380;-48
2022/05/07 04:33:33;;;;;;;8.32;6.63;;;10.90;93.70;;;;;;7369688;19;20424;-48
2022/05/07 04:36:09;;;;;;;9.20;6.37;;;10.90;94.00;;;;;;7373867;19;20135;-49
2022/05/07 04:38:42;;;;;;;9.00;6.17;;;10.90;94.30;;;;;;7372591;19;21053;-48
2022/05/07 04:41:20;;;;;;;8.77;5.93;;;11.00;93.90;;;;;;7365554;19;20368;-49
2022/05/07 04:43:52;;;;;;;7.65;6.20;;;11.00;94.00;;;;;;7379089;19;20403;-48
2022/05/07 04:46:22;;;;;;;8.20;6.50;;;11.10;94.00;;;;;;7376220;19;20132;-48
2022/05/07 04:49:01;;;;;;;10.53;6.67;;;11.10;94.20;;;;;;7385531;19;20945;-50
2022/05/07 04:51:33;;;;;;;10.97;7.33;;;11.20;93.90;;;;;;7384242;19;20380;-48
2022/05/07 04:54:11;;;;;;;8.93;6.50;;;11.30;93.40;;;;;;7388633;19;20398;-49
2022/05/07 04:56:43;;;;;;;10.60;7.70;;;11.40;93.50;;;;;;7384476;19;20131;-50
2022/05/07 04:59:12;;;;;;;8.80;7.30;;;11.50;92.90;;;;;;7388806;19;20419;-50
2022/05/07 05:01:52;;;;;;;7.20;6.23;;;11.30;93.20;;;;;;7379271;19;20387;-48
2022/05/07 05:04:24;;;;;;;8.93;7.07;;;11.10;93.70;;;;;;7385534;19;20368;-48
2022/05/07 05:06:55;;;;;;;8.53;6.83;;;11.20;94.00;;;;;;7383670;19;20364;-48
2022/05/07 05:09:32;;;;;;;10.43;6.60;;;11.10;94.30;;;;;;7382529;19;20416;-48
2022/05/07 05:12:17;;;;;;;11.40;6.60;;;11.00;94.60;;;;;;7386194;19;20421;-48
2022/05/07 05:15:05;;;;;;;9.57;7.70;;;11.00;94.90;;;;;;7383891;19;20126;-49
2022/05/07 05:17:49;;;;;;;8.87;7.00;;;10.90;95.40;;;;;;7380438;19;20412;-49
2022/05/07 05:20:22;;;;;;;8.20;6.63;;;11.20;94.80;;;;;;7379726;19;20447;-49
2022/05/07 05:23:22;;;;;;;10.13;8.00;;;11.50;94.10;;;;;;7380975;19;20764;-48
2022/05/07 05:25:55;;;;;;;9.67;5.97;;;11.70;93.40;;;;;;7383960;19;20941;-49
2022/05/07 05:28:43;;;;;;;9.33;6.53;;;12.00;92.80;;;;;;7385830;19;20938;-48
2022/05/07 05:31:14;;;;;;;9.27;6.80;;;11.80;92.60;;;;;;7379262;19;20425;-50
2022/05/07 05:33:48;;;;;;;10.85;6.65;;;11.60;93.40;;;;;;7388950;19;20874;-48
2022/05/07 05:36:36;;;;;;;10.23;8.27;;;11.50;93.80;;;;;;7381973;19;20217;-49
2022/05/07 05:39:11;;;;;;;10.40;7.40;;;11.50;93.80;;;;;;7386405;19;20375;-48
2022/05/07 05:41:46;;;;;;;8.80;7.50;;;11.60;93.90;;;;;;7385482;19;20408;-49
2022/05/07 05:44:19;;;;;;;10.83;7.80;;;11.60;93.70;;;;;;7386862;19;20447;-48
2022/05/07 05:46:53;;;;;;;8.63;7.10;;;11.90;93.40;;;;;;7381194;19;20370;-49
2022/05/07 05:49:24;;;;;;;8.93;7.47;;;12.00;92.60;;;;;;7382962;19;21094;-48
2022/05/07 05:51:56;;;;;;;8.83;6.97;;;12.10;92.50;;;;;;7379626;19;20419;-50
2022/05/07 05:54:26;;;;;;;10.03;7.90;;;12.00;92.40;;;;;;7377957;19;20404;-49
2022/05/07 05:57:00;;;;;;;9.83;7.57;;;12.00;92.80;;;;;;7379173;19;20380;-49
2022/05/07 05:59:35;;;;;;;9.33;6.70;;;12.20;92.80;;;;;;7378034;19;20432;-49
2022/05/07 06:02:06;;;;;;;12.40;8.37;;;12.50;92.30;;;;;;7372471;19;20373;-48
2022/05/07 06:04:48;;;;;;;10.97;7.53;;;12.70;91.60;;;;;;7378212;19;20370;-49
2022/05/07 06:07:23;;;;;;;13.40;8.37;;;12.80;91.20;;;;;;7370873;19;20376;-49
2022/05/07 06:09:57;;;;;;;9.77;7.67;;;12.80;90.60;;;;;;7376481;19;20364;-49
2022/05/07 06:12:28;;;;;;;11.13;8.07;;;13.00;90.80;;;;;;7378641;19;20428;-49
2022/05/07 06:15:04;;;;;;;8.40;7.23;;;13.40;90.30;;;;;;7375399;19;20377;-49
2022/05/07 06:17:35;;;;;;;9.13;7.00;;;13.70;88.70;;;;;;7374247;19;20739;-49
2022/05/07 06:20:08;;;;;;;10.20;8.20;;;13.90;87.40;;;;;;7372742;19;20483;-49
2022/05/07 06:22:43;;;;;;;9.97;8.10;;;14.10;86.80;;;;;;7377436;19;20356;-48
2022/05/07 06:28:01;;;;;;;13.33;9.03;;;14.40;85.30;;;;;;7375199;19;20380;-49
2022/05/07 06:30:39;;;;;;;11.23;10.00;;;14.60;84.70;;;;;;7371277;19;20420;-49
2022/05/07 06:33:13;;;;;;;15.47;9.03;;;14.70;83.60;;;;;;7374396;19;20388;-50
2022/05/07 06:35:52;;;;;;;12.47;8.60;;;14.90;83.40;;;;;;7370271;19;20762;-49
2022/05/07 06:38:36;;;;;;;11.00;9.23;;;15.20;83.30;;;;;;7376060;19;20404;-49
2022/05/07 06:41:08;;;;;;;10.50;8.83;;;15.40;82.30;;;;;;7374521;19;20379;-49
2022/05/07 06:43:48;;;;;;;12.33;9.70;;;15.50;81.30;;;;;;7374083;19;20388;-49
2022/05/07 06:46:26;;;;;;;12.70;9.50;;;15.60;80.90;;;;;;7372071;19;21056;-49
2022/05/07 06:49:02;;;;;;;11.43;8.93;;;15.80;80.80;;;;;;7374415;19;20890;-49
2022/05/07 06:51:53;;;;;;;12.33;8.73;;;15.90;79.00;;;;;;7375857;19;20802;-49
2022/05/07 06:54:23;;;;;;;13.13;9.40;;;16.10;79.00;;;;;;7377535;19;20372;-49
2022/05/07 06:56:53;;;;;;;11.17;9.40;;;16.30;77.80;;;;;;7377429;19;20955;-49
2022/05/07 06:59:23;;;;;;;10.90;9.00;;;16.40;76.60;;;;;;7374848;19;20395;-49
2022/05/07 07:01:55;;;;;;;14.30;9.50;;;16.50;76.60;;;;;;7372973;19;20387;-49
2022/05/07 07:04:27;;;;;;;11.17;9.23;;;16.60;76.40;;;;;;7378262;19;20379;-50
2022/05/07 07:06:57;;;;;;;12.20;10.00;;;16.70;76.00;;;;;;7373552;19;20392;-50
2022/05/07 07:09:26;;;;;;;10.57;8.87;;;16.80;74.60;;;;;;7372904;19;20368;-49
2022/05/07 07:11:56;;;;;;;13.73;9.23;;;17.00;73.00;;;;;;7371219;19;20414;-49
2022/05/07 07:14:28;;;;;;;13.07;9.43;;;17.20;72.60;;;;;;7370808;19;20376;-49
2022/05/07 07:17:00;;;;;;;11.00;9.80;;;17.30;70.50;;;;;;7372336;19;20986;-49
2022/05/07 07:19:35;;;;;;;11.03;8.23;;;17.40;70.50;;;;;;7372410;19;23335;-49
2022/05/07 07:22:05;;;;;;;12.30;8.77;;;17.50;69.50;;;;;;7375468;19;20455;-49
2022/05/07 07:24:35;;;;;;;11.93;8.90;;;17.40;69.40;;;;;;7370534;19;20396;-49
2022/05/07 07:27:08;;;;;;;11.37;8.77;;;17.60;68.40;;;;;;7378551;19;20719;-49
2022/05/07 07:29:38;;;;;;;10.20;8.50;;;17.70;68.10;;;;;;7371047;19;20384;-50
2022/05/07 07:32:11;;;;;;;9.13;7.77;;;17.90;67.30;;;;;;7369276;19;20377;-50
2022/05/07 07:34:41;;;;;;;12.30;9.37;;;18.20;65.40;;;;;;7373014;19;20420;-51
2022/05/07 07:37:10;;;;;;;10.87;8.40;;;18.30;64.80;;;;;;7374570;19;20896;-49
2022/05/07 07:39:40;;;;;;;10.63;8.90;;;18.40;64.10;;;;;;7368472;19;20380;-49
2022/05/07 07:42:10;;;;;;;9.70;8.70;;;18.70;64.10;;;;;;7374310;19;20396;-50
2022/05/07 07:44:41;;;;;;;9.93;8.70;;;18.70;62.00;;;;;;7376645;19;20924;-51
2022/05/07 07:49:59;;;;;;;10.13;8.97;;;19.00;61.10;;;;;;7375086;19;20383;-51
2022/05/07 07:52:31;;;;;;;11.30;7.90;;;19.20;59.60;;;;;;7375115;19;20383;-49
2022/05/07 07:55:00;;;;;;;16.30;7.87;;;19.30;59.90;;;;;;7375498;19;20384;-49
2022/05/07 07:57:32;;;;;;;13.23;7.50;;;19.50;58.20;;;;;;7377573;19;20376;-49
2022/05/07 08:00:02;;;;;;;8.87;7.87;;;19.70;57.60;;;;;;7371952;19;20381;-48
2022/05/07 08:02:52;;;;;;;10.10;7.87;;;19.90;56.50;;;;;;7374162;19;20829;-48
2022/05/07 08:05:26;;;;;;;12.40;7.33;;;20.10;55.80;;;;;;7365606;19;20382;-49
2022/05/07 08:13:23;;;;;;;11.73;7.70;;;20.40;55.10;;;;;;7377173;19;22034;-48
2022/05/07 08:15:57;;;;;;;9.57;8.00;;;20.50;54.80;;;;;;7371150;19;20399;-48
2022/05/07 08:18:30;;;;;;;8.50;6.83;;;20.50;54.50;;;;;;7373028;19;20427;-49
2022/05/07 08:21:00;;;;;;;14.97;7.60;;;20.70;55.00;;;;;;7369965;19;20382;-39
2022/05/07 08:23:29;;;;;;;9.10;7.77;;;20.80;54.40;;;;;;7372086;19;20376;-39
2022/05/07 08:25:59;;;;;;;9.90;8.90;;;21.00;53.10;;;;;;7371588;19;20415;-39
2022/05/07 08:28:29;;;;;;;9.20;7.33;;;21.10;52.70;;;;;;7370329;19;20383;-39
2022/05/07 08:31:01;;;;;;;8.97;8.07;;;21.10;52.20;;;;;;7363759;19;20376;-39
2022/05/07 08:33:34;;;;;;;7.20;6.50;;;21.30;52.10;;;;;;7371260;19;20408;-39
2022/05/07 08:36:06;;;;;;;6.77;6.17;;;21.40;52.50;;;;;;7367769;19;20820;-40
2022/05/07 08:38:40;;;;;;;10.63;7.90;;;21.60;51.70;;;;;;7375657;19;20400;-39
2022/05/07 08:41:11;;;;;;;8.53;7.50;;;21.50;51.00;;;;;;7365345;19;20757;-40
2022/05/07 08:43:44;;;;;;;13.03;10.00;;;21.70;51.80;;;;;;7367447;19;20415;-40
2022/05/07 08:46:16;;;;;;;10.20;8.00;;;22.00;51.40;;;;;;7370923;19;20372;-40
2022/05/07 08:48:54;;;;;;;8.60;6.70;;;22.40;50.90;;;;;;7364109;19;21168;-40
2022/05/07 08:51:24;;;;;;;12.97;8.73;;;22.70;50.70;;;;;;7372684;19;20913;-49
2022/05/07 08:53:54;;;;;;;7.93;7.10;;;23.00;48.70;;;;;;7374005;19;20376;-49
2022/05/07 08:56:26;;;;;;;10.50;9.40;;;23.10;48.90;;;;;;7369954;19;20364;-48
2022/05/07 08:58:58;;;;;;;10.20;9.00;;;23.20;47.70;;;;;;7371790;19;20971;-50
2022/05/07 09:01:28;;;;;;;10.13;8.90;;;23.40;48.30;;;;;;7368395;19;20412;-50
2022/05/07 09:04:11;;;;;;;9.70;7.10;;;23.80;47.50;;;;;;7364937;19;20438;-50
2022/05/07 09:06:41;;;;;;;8.73;7.73;;;24.30;46.90;;;;;;7369093;19;20451;-49
2022/05/07 09:09:14;;;;;;;8.90;7.90;;;24.60;46.40;;;;;;7357381;19;20959;-49
2022/05/07 09:11:44;;;;;;;10.20;8.80;;;24.90;45.50;;;;;;7364662;19;21835;-49
2022/05/07 09:14:19;;;;;;;10.00;9.00;;;25.80;45.00;;;;;;7368857;19;20245;-50
2022/05/07 09:16:50;;;;;;;11.77;7.80;;;25.90;42.30;;;;;;7366586;19;20384;-50
2022/05/07 09:19:27;;;;;;;8.53;7.57;;;26.00;42.40;;;;;;7367964;19;20432;-50
2022/05/07 09:22:10;;;;;;;8.23;7.43;;;26.50;41.30;;;;;;7363326;19;21187;-39
2022/05/07 09:24:40;;;;;;;7.57;6.87;;;27.30;39.60;;;;;;7361074;19;20401;-40
2022/05/07 09:27:19;;;;;;;7.60;6.50;;;27.70;38.00;;;;;;7369813;19;20389;-39
2022/05/07 09:30:02;;;;;;;5.87;5.37;;;28.00;36.60;;;;;;7373313;19;20778;-40
2022/05/07 09:32:38;;;;;;;7.33;5.60;;;27.90;36.30;;;;;;7379071;19;20380;-40
2022/05/07 09:38:04;;;;;;;5.10;4.50;;;28.20;32.90;;;;;;7381391;19;20415;-39
2022/05/07 09:40:34;;;;;;;4.43;4.03;;;28.20;34.20;;;;;;7381854;19;20380;-40
2022/05/07 09:43:04;;;;;;;7.37;4.60;;;28.70;34.00;;;;;;7378878;19;20910;-42
2022/05/07 09:45:37;;;;;;;3.90;3.60;;;29.50;33.30;;;;;;7380654;19;20771;-43
2022/05/07 09:48:08;;;;;;;5.23;3.93;;;30.10;30.80;;;;;;7380449;19;20380;-42
2022/05/07 09:50:47;;;;;;;4.77;3.50;;;30.30;29.70;;;;;;7379105;19;20383;-50
2022/05/07 09:58:49;;;;;;;2.57;2.37;;;30.60;26.70;;;;;;7380750;19;20745;-51
2022/05/07 10:01:40;;;;;;;2.93;2.47;;;31.20;26.90;;;;;;7382446;19;20380;-51
2022/05/07 10:04:38;;;;;;;2.70;1.97;;;31.90;26.60;;;;;;7379768;19;20372;-49
2022/05/07 10:07:23;;;;;;;3.10;1.73;;;33.00;25.10;;;;;;7380505;19;21014;-48
2022/05/07 10:10:07;;;;;;;2.43;1.83;;;32.80;25.30;;;;;;7379595;19;20465;-50
2022/05/07 10:12:38;;;;;;;2.20;1.80;;;32.30;24.20;;;;;;7379624;19;20369;-49
2022/05/07 10:15:12;;;;;;;2.53;1.87;;;32.20;23.90;;;;;;7382420;19;21035;-49
2022/05/07 10:17:48;;;;;;;4.50;1.90;;;32.50;24.70;;;;;;7380071;19;20380;-48
2022/05/07 10:20:23;;;;;;;6.27;2.50;;;32.80;24.10;;;;;;7378846;19;20416;-42
2022/05/07 10:23:01;;;;;;;3.77;2.33;;;32.10;24.60;;;;;;7380675;19;20380;-42
2022/05/07 10:25:30;;;;;;;2.77;2.30;;;31.80;25.30;;;;;;7379455;19;20372;-40
2022/05/07 10:28:10;;;;;;;2.60;2.10;;;32.50;24.40;;;;;;7375628;19;20385;-41
2022/05/07 10:30:52;;;;;;;3.20;2.70;;;33.10;23.30;;;;;;7379207;19;20404;-41
2022/05/07 10:33:25;;;;;;;2.33;1.73;;;34.10;22.80;;;;;;7379596;19;20379;-41
2022/05/07 10:35:58;;;;;;;3.90;1.70;;;34.60;22.10;;;;;;7380572;19;20966;-41
2022/05/07 10:38:36;;;;;;;3.90;2.10;;;35.40;21.60;;;;;;7377816;19;20380;-41
2022/05/07 10:41:07;;;;;;;2.70;2.50;;;35.90;21.00;;;;;;7379331;19;20380;-41
2022/05/07 10:43:39;;;;;;;4.43;2.10;;;35.60;21.00;;;;;;7378186;19;20391;-41
2022/05/07 10:46:10;;;;;;;3.50;2.57;;;34.00;22.60;;;;;;7373948;19;20380;-41
2022/05/07 10:48:47;;;;;;;2.77;2.40;;;32.80;24.50;;;;;;7380426;19;20380;-41
2022/05/07 10:51:20;;;;;;;4.97;2.63;;;33.40;24.40;;;;;;7380797;19;20447;-41
2022/05/07 10:53:52;;;;;;;3.50;2.47;;;33.60;24.20;;;;;;7378363;19;20414;-41
2022/05/07 10:56:23;;;;;;;2.40;2.20;;;34.20;23.80;;;;;;7379710;19;20368;-41
2022/05/07 10:58:55;;;;;;;4.80;2.90;;;34.40;23.80;;;;;;7377384;19;21138;-41
2022/05/07 11:01:28;;;;;;;3.00;2.70;;;33.40;24.50;;;;;;7375736;19;20379;-48
2022/05/07 11:04:05;;;;;;;3.50;2.67;;;32.40;24.70;;;;;;7380031;19;20818;-49
2022/05/07 11:06:34;;;;;;;3.00;2.67;;;31.40;25.80;;;;;;7379469;19;20532;-48
2022/05/07 11:09:15;;;;;;;2.97;2.67;;;30.70;26.40;;;;;;7377170;19;20647;-48
2022/05/07 11:11:47;;;;;;;3.20;2.53;;;29.90;27.80;;;;;;7379256;19;20459;-49
2022/05/07 11:14:24;;;;;;;4.17;2.77;;;30.30;27.40;;;;;;7377298;19;20376;-48
2022/05/07 11:16:55;;;;;;;5.10;2.60;;;31.20;26.50;;;;;;7376156;19;20420;-50
2022/05/07 11:19:29;;;;;;;2.83;2.47;;;32.60;25.40;;;;;;7372511;19;20818;-48
2022/05/07 11:22:01;;;;;;;3.50;2.73;;;33.20;24.90;;;;;;7378991;19;20762;-49
2022/05/07 11:24:34;;;;;;;3.77;2.70;;;33.60;24.00;;;;;;7376460;19;20382;-49
2022/05/07 11:27:07;;;;;;;4.90;2.47;;;34.30;23.00;;;;;;7379483;19;20377;-49
2022/05/07 11:29:37;;;;;;;2.23;2.03;;;35.30;22.30;;;;;;7376161;19;20995;-41
2022/05/07 11:32:11;;;;;;;2.73;2.40;;;35.40;21.80;;;;;;7377628;19;20372;-41
2022/05/07 11:34:42;;;;;;;2.50;1.93;;;35.40;21.80;;;;;;7378106;19;20451;-39
2022/05/07 11:37:16;;;;;;;2.27;1.70;;;35.50;21.80;;;;;;7377582;19;20419;-40
2022/05/07 11:39:57;;;;;;;2.43;2.00;;;35.50;21.00;;;;;;7376891;19;20408;-40
2022/05/07 11:42:34;;;;;;;2.80;1.87;;;35.40;20.50;;;;;;7371265;19;20372;-41
2022/05/07 11:47:56;;;;;;;2.20;2.00;;;35.20;21.00;;;;;;7379380;19;20441;-41
2022/05/07 11:50:30;;;;;;;2.37;2.13;;;32.80;21.60;;;;;;7376731;19;20835;-41
2022/05/07 11:53:12;;;;;;;3.80;2.03;;;32.60;23.50;;;;;;7374668;19;20376;-41
2022/05/07 11:55:45;;;;;;;2.90;1.80;;;33.70;23.10;;;;;;7376231;19;20376;-41
2022/05/07 11:58:16;;;;;;;1.90;1.60;;;34.70;21.80;;;;;;7376700;19;20372;-41
2022/05/07 12:00:49;;;;;;;3.00;1.80;;;34.60;21.40;;;;;;7374420;19;20368;-40
2022/05/07 12:03:20;;;;;;;2.90;1.80;;;34.80;21.30;;;;;;7377838;19;20436;-40
2022/05/07 12:05:54;;;;;;;3.97;1.57;;;35.10;20.90;;;;;;7378736;19;20368;-40
2022/05/07 12:08:27;;;;;;;4.73;1.80;;;35.20;20.70;;;;;;7376850;19;20785;-40
2022/05/07 12:11:02;;;;;;;5.17;2.23;;;34.80;20.80;;;;;;7373320;19;20376;-40
2022/05/07 12:13:32;;;;;;;3.60;2.27;;;34.40;21.30;;;;;;7377547;19;20371;-42
2022/05/07 12:18:47;;;;;;;2.67;2.00;;;33.10;22.20;;;;;;7372678;19;20435;-41
2022/05/07 12:29:48;;;;;;;2.53;1.67;;;32.40;22.00;;;;;;7377556;19;20428;-41
2022/05/07 12:32:26;;;;;;;2.10;1.90;;;30.10;24.60;;;;;;7376296;19;20398;-49
2022/05/07 12:35:00;;;;;;;2.80;1.70;;;30.10;24.90;;;;;;7378615;19;20380;-48
2022/05/07 12:37:33;;;;;;;2.50;2.03;;;29.90;25.90;;;;;;7377037;19;20387;-48
2022/05/07 12:40:02;;;;;;;2.27;1.90;;;29.50;26.50;;;;;;7374546;19;20384;-48
2022/05/07 12:42:35;;;;;;;2.70;2.00;;;29.30;27.30;;;;;;7377358;19;20376;-48
2022/05/07 12:45:04;;;;;;;2.43;2.10;;;29.10;27.80;;;;;;7378561;19;21107;-47
2022/05/07 12:47:36;;;;;;;2.70;2.50;;;28.90;27.20;;;;;;7374117;19;20948;-48
2022/05/07 12:50:09;;;;;;;2.87;2.20;;;29.60;26.40;;;;;;7372412;19;20395;-48
2022/05/07 12:52:43;;;;;;;3.33;2.23;;;30.00;26.00;;;;;;7375541;19;20391;-49
2022/05/07 12:55:13;;;;;;;3.03;1.97;;;30.90;25.40;;;;;;7375623;19;20380;-49
2022/05/07 12:57:45;;;;;;;3.50;2.13;;;32.30;24.10;;;;;;7376686;19;20465;-49
2022/05/07 13:00:16;;;;;;;1.73;1.63;;;33.00;23.40;;;;;;7373799;19;20480;-42
2022/05/07 13:02:52;;;;;;;2.10;1.33;;;33.40;23.10;;;;;;7376766;19;20380;-40
2022/05/07 13:05:22;;;;;;;4.40;1.97;;;34.10;22.40;;;;;;7383071;19;20400;-40
2022/05/07 13:07:53;;;;;;;2.13;1.93;;;34.60;22.20;;;;;;7380099;19;20372;-40
2022/05/07 13:10:25;;;;;;;1.87;1.60;;;34.80;21.70;;;;;;7380387;19;20532;-40
2022/05/07 13:12:59;;;;;;;2.63;1.70;;;35.10;21.40;;;;;;7382858;19;20384;-40
2022/05/07 13:15:32;;;;;;;5.47;2.30;;;35.00;21.00;;;;;;7384168;19;20385;-40
2022/05/07 13:18:02;;;;;;;2.57;1.90;;;35.30;21.10;;;;;;7355783;19;20467;-40
2022/05/07 13:20:32;;;;;;;3.87;2.10;;;35.30;20.90;;;;;;7381471;19;20368;-40
2022/05/07 13:23:02;;;;;;;2.87;1.83;;;35.10;21.40;;;;;;7383192;19;20372;-40
2022/05/07 13:25:34;;;;;;;2.47;1.70;;;34.60;21.50;;;;;;7380197;19;20691;-41
2022/05/07 13:28:07;;;;;;;2.53;1.73;;;34.10;22.00;;;;;;7381786;19;20376;-42
2022/05/07 13:30:38;;;;;;;2.90;1.83;;;33.50;22.20;;;;;;7380716;19;20403;-50
2022/05/07 13:33:10;;;;;;;2.07;1.70;;;32.50;23.50;;;;;;7383650;19;20391;-49
2022/05/07 13:35:42;;;;;;;1.93;1.53;;;31.20;24.40;;;;;;7382293;19;20376;-48
2022/05/07 13:38:14;;;;;;;4.10;1.53;;;30.50;24.80;;;;;;7381892;19;20368;-48
2022/05/07 13:40:46;;;;;;;4.83;1.93;;;29.80;25.30;;;;;;7380578;19;20376;-49
2022/05/07 13:43:21;;;;;;;4.37;2.10;;;29.40;25.50;;;;;;7381089;19;20379;-49
2022/05/07 13:45:54;;;;;;;3.90;1.93;;;29.30;26.10;;;;;;7383630;19;20719;-48
2022/05/07 13:48:23;;;;;;;2.83;1.70;;;29.10;26.50;;;;;;7383760;19;20412;-49
2022/05/07 13:50:55;;;;;;;3.13;1.83;;;29.00;27.00;;;;;;7381395;19;20384;-47
2022/05/07 13:53:28;;;;;;;2.00;1.73;;;28.90;26.50;;;;;;7380640;19;20368;-48
2022/05/07 13:56:02;;;;;;;3.83;1.80;;;28.50;26.50;;;;;;7382404;19;20431;-48
2022/05/07 13:58:34;;;;;;;2.93;1.90;;;28.00;27.00;;;;;;7382767;19;20417;-48
2022/05/07 14:01:03;;;;;;;6.80;2.10;;;27.90;27.70;;;;;;7381954;19;20941;-50